Time;durP1;ratioP1;P1;durP2;ratioP2;P2;SDS_P1;SDS_P2;PMS_P1;PMS_P2;Temp;Humidity;BMP_temperature;BMP_pressure;BME280_temperature;BME280_humidity;BME280_pressure;Samples;Min_cycle;Max_cycle;Signal;HPM_P1;HPM_P2
2024/03/28 00:04:20;;;;;;;1.57;0.90;;;;;;;17.40;55.42;98468.22;10369968;28;20030;-58
2024/03/28 00:09:21;;;;;;;1.97;0.90;;;;;;;17.38;55.77;98471.25;10370124;28;20272;-58
2024/03/28 00:14:21;;;;;;;1.80;0.93;;;;;;;17.39;55.31;98456.72;10368568;28;20292;-58
2024/03/28 00:19:21;;;;;;;2.33;1.75;;;;;;;17.38;54.60;98439.09;10370137;28;20045;-58
2024/03/28 00:24:22;;;;;;;2.03;1.00;;;;;;;17.41;54.31;98437.66;10369346;28;20026;-58
2024/03/28 00:29:22;;;;;;;1.55;1.15;;;;;;;17.41;54.75;98424.25;10369223;28;20298;-58
2024/03/28 00:34:22;;;;;;;1.50;0.90;;;;;;;17.38;55.62;98400.81;10369096;28;20052;-59
2024/03/28 00:39:23;;;;;;;2.17;1.20;;;;;;;17.43;53.76;98397.91;10368745;28;20285;-58
2024/03/28 00:44:23;;;;;;;1.87;1.13;;;;;;;17.41;53.78;98398.25;10368224;28;20296;-59
2024/03/28 00:49:23;;;;;;;4.17;1.23;;;;;;;17.39;54.06;98402.38;10368524;28;20280;-58
2024/03/28 00:54:23;;;;;;;1.43;0.80;;;;;;;17.40;55.00;98410.06;10367991;28;20273;-58
2024/03/28 00:59:24;;;;;;;1.63;1.07;;;;;;;17.41;54.66;98392.13;10368979;28;20280;-58
2024/03/28 01:04:24;;;;;;;2.00;1.30;;;;;;;17.40;54.06;98393.22;10367663;28;20292;-59
2024/03/28 01:09:25;;;;;;;1.97;0.93;;;;;;;17.41;54.50;98378.72;10368694;28;20377;-58
2024/03/28 01:14:26;;;;;;;1.53;1.27;;;;;;;17.43;54.53;98365.75;10368190;28;20296;-59
2024/03/28 01:19:26;;;;;;;2.05;0.90;;;;;;;17.41;54.94;98357.28;10368089;28;20788;-58
2024/03/28 01:24:27;;;;;;;1.53;1.00;;;;;;;17.41;54.76;98341.22;10367259;28;20035;-58
2024/03/28 01:29:27;;;;;;;1.80;1.00;;;;;;;17.43;54.49;98326.34;10367745;28;20280;-58
2024/03/28 01:34:27;;;;;;;1.17;0.80;;;;;;;17.41;54.60;98327.81;10367660;28;20285;-58
2024/03/28 01:39:27;;;;;;;0.93;0.50;;;;;;;17.40;54.60;98328.94;10367879;28;20273;-58
2024/03/28 01:44:28;;;;;;;2.40;0.70;;;;;;;17.41;54.67;98333.19;10366754;28;20768;-58
2024/03/28 01:49:28;;;;;;;0.90;0.70;;;;;;;17.40;54.73;98328.94;10366588;28;20285;-58
2024/03/28 01:54:34;;;;;;;1.60;0.80;;;;;;;17.42;54.62;98321.34;10367017;28;20029;-58
2024/03/28 01:59:35;;;;;;;1.27;0.80;;;;;;;17.41;54.02;98325.94;10366756;28;20320;-58
2024/03/28 02:04:35;;;;;;;1.15;0.70;;;;;;;17.37;54.43;98314.31;10365984;28;20104;-58
2024/03/28 02:09:37;;;;;;;0.88;0.73;;;;;;;17.42;54.73;98326.69;10373232;28;20120;-59
2024/03/28 02:14:37;;;;;;;1.30;0.82;;;;;;;17.42;53.48;98324.03;10373801;28;20048;-58
2024/03/28 02:19:38;;;;;;;0.90;0.60;;;;;;;17.39;54.48;98312.06;10374215;28;20030;-58
2024/03/28 02:24:40;;;;;;;1.87;0.90;;;;;;;17.41;54.89;98309.06;10374045;28;20501;-58
2024/03/28 02:29:40;;;;;;;1.25;0.70;;;;;;;17.41;53.95;98309.06;10374480;28;20284;-58
2024/03/28 02:34:41;;;;;;;1.10;0.80;;;;;;;17.38;54.57;98310.53;10373297;28;20018;-59
2024/03/28 02:39:41;;;;;;;0.90;0.53;;;;;;;17.40;54.15;98315.53;10373391;28;20772;-58
2024/03/28 02:44:41;;;;;;;2.33;1.07;;;;;;;17.39;53.83;98306.72;10371412;28;20307;-58
2024/03/28 02:49:41;;;;;;;0.80;0.60;;;;;;;17.36;54.23;98302.06;10373106;28;20288;-58
2024/03/28 02:54:42;;;;;;;0.70;0.67;;;;;;;17.37;54.55;98295.56;10370955;28;20347;-58
2024/03/28 02:59:42;;;;;;;0.93;0.70;;;;;;;17.39;53.76;98281.84;10372698;28;20281;-58
2024/03/28 03:04:43;;;;;;;0.80;0.50;;;;;;;17.36;53.61;98277.19;10371869;28;20288;-58
2024/03/28 03:09:43;;;;;;;1.20;0.70;;;;;;;17.39;54.14;98279.94;10372590;28;20112;-58
2024/03/28 03:14:44;;;;;;;0.70;0.60;;;;;;;17.36;54.23;98269.91;10371492;28;20061;-58
2024/03/28 03:19:44;;;;;;;1.85;1.05;;;;;;;17.37;54.06;98273.38;10369379;28;20283;-58
2024/03/28 03:24:44;;;;;;;0.95;0.63;;;;;;;17.37;53.37;98262.66;10371443;28;20022;-58
2024/03/28 03:35:05;;;;;;;1.00;0.60;;;;;;;17.36;54.25;98242.34;10371434;28;20449;-58
2024/03/28 03:40:09;;;;;;;1.00;0.50;;;;;;;17.40;53.30;98240.53;10371243;28;20444;-58
2024/03/28 03:45:09;;;;;;;1.20;0.75;;;;;;;17.39;53.64;98230.94;10370548;28;20113;-58
2024/03/28 03:50:09;;;;;;;1.60;0.97;;;;;;;17.34;54.03;98221.28;10370504;28;20034;-58
2024/03/28 03:55:10;;;;;;;1.80;0.77;;;;;;;17.37;53.97;98206.41;10370314;28;20272;-57
2024/03/28 04:00:11;;;;;;;1.42;0.80;;;;;;;17.36;53.13;98194.91;10370507;28;20289;-58
2024/03/28 04:05:12;;;;;;;1.27;0.75;;;;;;;17.34;53.93;98189.13;10366295;28;20034;-58
2024/03/28 04:10:12;;;;;;;1.30;0.70;;;;;;;17.35;54.19;98163.91;10366741;28;20029;-57
2024/03/28 04:15:12;;;;;;;1.88;0.85;;;;;;;17.33;54.01;98171.53;10365060;28;20041;-58
2024/03/28 04:20:13;;;;;;;0.93;0.68;;;;;;;17.34;53.21;98165.03;10369690;28;20076;-58
2024/03/28 04:25:14;;;;;;;1.35;0.88;;;;;;;17.37;53.68;98152.84;10368917;28;20116;-58
2024/03/28 04:30:14;;;;;;;1.58;0.70;;;;;;;17.35;53.93;98147.06;10369053;28;20626;-59
2024/03/28 04:35:14;;;;;;;0.57;0.40;;;;;;;17.34;53.83;98134.78;10368685;28;20072;-59
2024/03/28 04:40:15;;;;;;;1.25;0.73;;;;;;;17.36;53.44;98143.25;10368947;28;20109;-58
2024/03/28 04:45:19;;;;;;;1.67;0.70;;;;;;;17.37;53.32;98142.13;10368572;28;20377;-58
2024/03/28 04:50:20;;;;;;;1.80;1.10;;;;;;;17.38;53.79;98139.09;10367524;28;20018;-58
2024/03/28 04:55:20;;;;;;;1.15;0.80;;;;;;;17.38;53.43;98144.44;10367636;28;20017;-58
2024/03/28 05:00:21;;;;;;;0.90;0.60;;;;;;;17.34;54.14;98130.22;10364494;28;20069;-57
2024/03/28 05:05:21;;;;;;;1.80;0.60;;;;;;;17.34;53.69;98124.09;10363894;28;20618;-59
2024/03/28 05:10:21;;;;;;;1.17;0.60;;;;;;;17.32;53.94;98121.75;10363754;28;20385;-57
2024/03/28 05:15:22;;;;;;;0.95;0.70;;;;;;;17.32;53.88;98119.09;10360766;28;20292;-59
2024/03/28 05:20:22;;;;;;;0.93;0.60;;;;;;;17.34;52.62;98105.34;10365300;28;20030;-59
2024/03/28 05:25:22;;;;;;;1.40;0.77;;;;;;;17.34;53.88;98106.09;10367352;28;20296;-58
2024/03/28 05:30:22;;;;;;;1.00;0.77;;;;;;;17.34;53.68;98083.91;10366832;28;20288;-58
2024/03/28 05:35:23;;;;;;;1.07;0.90;;;;;;;17.37;52.47;98088.56;10367391;28;20283;-59
2024/03/28 05:40:23;;;;;;;0.80;0.80;;;;;;;17.34;53.36;98078.56;10369343;28;20276;-58
2024/03/28 05:45:23;;;;;;;1.40;0.60;;;;;;;17.36;52.84;98087.00;10375350;28;20292;-58
2024/03/28 05:50:24;;;;;;;0.83;0.67;;;;;;;17.32;52.95;98081.59;10375232;28;20288;-58
2024/03/28 05:55:24;;;;;;;0.90;0.50;;;;;;;17.30;53.40;98081.16;10375019;28;20277;-57
2024/03/28 06:00:24;;;;;;;1.98;0.77;;;;;;;17.33;53.10;98085.81;10374791;28;20269;-58
2024/03/28 06:05:25;;;;;;;4.43;1.23;;;;;;;17.44;54.39;98083.34;10374721;28;20057;-58
2024/03/28 06:10:25;;;;;;;4.10;1.20;;;;;;;17.43;55.52;98076.44;10374034;28;20287;-57
2024/03/28 06:15:26;;;;;;;2.42;0.93;;;;;;;17.41;54.41;98106.28;10374010;28;20976;-56
2024/03/28 06:20:26;;;;;;;1.95;0.60;;;;;;;17.38;54.73;98111.53;10373842;28;20037;-58
2024/03/28 06:25:26;;;;;;;5.97;1.13;;;;;;;17.34;53.95;98114.16;10373966;28;20072;-57
2024/03/28 06:30:27;;;;;;;6.13;0.87;;;;;;;17.31;54.85;98119.44;10373485;28;20644;-57
2024/03/28 06:35:27;;;;;;;4.20;1.17;;;;;;;17.30;54.84;98129.38;10373819;28;20277;-57
2024/03/28 06:40:27;;;;;;;8.80;1.08;;;;;;;17.18;56.36;98121.44;10373142;28;20041;-58
2024/03/28 06:45:28;;;;;;;6.53;1.20;;;;;;;17.09;56.46;98127.00;10373088;28;20021;-57
2024/03/28 06:50:28;;;;;;;5.00;1.60;;;;;;;17.13;55.59;98113.66;10371804;28;20787;-57
2024/03/28 06:55:28;;;;;;;3.58;1.10;;;;;;;17.10;55.58;98112.47;10372938;28;20276;-58
2024/03/28 07:00:29;;;;;;;5.77;1.27;;;;;;;17.12;56.15;98098.72;10371337;28;20117;-57
2024/03/28 07:05:29;;;;;;;12.95;2.28;;;;;;;17.16;54.92;98095.00;10372708;28;20383;-57
2024/03/28 07:10:29;;;;;;;7.10;2.03;;;;;;;17.13;55.28;98100.28;10371157;28;20033;-58
2024/03/28 07:15:30;;;;;;;7.80;1.37;;;;;;;17.12;55.60;98096.84;10372061;28;20307;-57
2024/03/28 07:20:30;;;;;;;5.13;1.40;;;;;;;17.11;55.99;98105.22;10371476;28;20287;-58
2024/03/28 07:25:30;;;;;;;5.07;1.63;;;;;;;17.06;55.02;98100.16;10370402;28;20030;-58
2024/03/28 07:30:31;;;;;;;6.40;1.30;;;;;;;17.04;54.40;98097.00;10371677;28;20277;-58
2024/03/28 07:35:31;;;;;;;4.80;1.40;;;;;;;17.03;54.75;98101.59;10371275;28;20021;-57
2024/03/28 07:40:32;;;;;;;5.47;1.90;;;;;;;17.05;55.44;98119.97;10370537;28;20022;-58
2024/03/28 07:45:33;;;;;;;3.33;1.30;;;;;;;17.03;55.08;98116.88;10370993;28;20077;-58
2024/03/28 07:50:34;;;;;;;4.00;1.23;;;;;;;17.00;55.50;98120.25;10370302;28;20364;-58
2024/03/28 07:55:34;;;;;;;6.10;2.25;;;;;;;17.01;55.12;98119.91;10370238;28;20095;-58
2024/03/28 08:00:35;;;;;;;2.87;1.07;;;;;;;17.08;55.72;98121.97;10368539;28;20039;-59
2024/03/28 08:05:36;;;;;;;3.47;1.17;;;;;;;17.06;55.28;98129.59;10369524;28;21188;-58
2024/03/28 08:10:36;;;;;;;2.65;0.80;;;;;;;17.08;55.69;98119.31;10369499;28;20044;-58
2024/03/28 08:15:37;;;;;;;5.15;1.23;;;;;;;17.13;54.63;98129.72;10369599;28;20398;-58
2024/03/28 08:20:37;;;;;;;2.58;1.10;;;;;;;17.13;54.84;98127.06;10368268;28;20022;-59
2024/03/28 08:25:38;;;;;;;4.53;1.13;;;;;;;17.16;55.47;98121.00;10369678;28;20681;-58
2024/03/28 08:30:39;;;;;;;4.18;1.23;;;;;;;17.17;53.94;98126.03;10367426;28;20029;-58
2024/03/28 08:35:40;;;;;;;2.20;1.05;;;;;;;17.18;54.36;98129.47;10369105;28;20101;-58
2024/03/28 08:40:41;;;;;;;2.70;1.13;;;;;;;17.18;54.77;98140.97;10368557;28;20045;-58
2024/03/28 08:45:42;;;;;;;2.30;0.77;;;;;;;17.12;55.61;98153.06;10368597;28;20037;-58
2024/03/28 08:50:42;;;;;;;3.45;1.42;;;;;;;17.14;54.05;98148.13;10368235;28;20074;-57
2024/03/28 08:55:43;;;;;;;5.53;0.73;;;;;;;17.17;55.09;98144.78;10368882;28;20036;-58
2024/03/28 09:00:46;;;;;;;2.83;0.95;;;;;;;17.21;55.07;98144.84;10368051;28;20281;-57
2024/03/28 09:05:49;;;;;;;2.05;0.80;;;;;;;17.19;55.33;98153.22;10368225;28;20474;-58
2024/03/28 09:10:54;;;;;;;2.80;0.70;;;;;;;17.17;55.29;98165.41;10367865;28;20037;-58
2024/03/28 09:15:54;;;;;;;4.50;0.95;;;;;;;17.14;54.47;98160.75;10372485;28;20473;-58
2024/03/28 09:20:54;;;;;;;2.47;0.77;;;;;;;17.18;55.44;98167.75;10376388;28;20038;-58
2024/03/28 09:25:55;;;;;;;1.50;1.00;;;;;;;17.17;54.82;98171.56;10376582;28;20037;-58
2024/03/28 09:30:55;;;;;;;1.13;0.60;;;;;;;17.15;55.56;98171.09;10375822;28;20279;-58
2024/03/28 09:35:55;;;;;;;2.08;0.60;;;;;;;17.15;55.03;98183.72;10376178;28;20287;-58
2024/03/28 09:41:00;;;;;;;1.43;0.70;;;;;;;17.16;54.38;98187.94;10375394;28;20049;-58
2024/03/28 09:46:00;;;;;;;1.67;0.57;;;;;;;17.14;54.97;98185.59;10375411;28;20655;-57
2024/03/28 09:51:01;;;;;;;1.02;0.60;;;;;;;17.12;54.27;98193.22;10375229;28;20036;-57
2024/03/28 09:56:01;;;;;;;0.77;0.57;;;;;;;17.16;55.31;98201.31;10373909;28;20024;-57
2024/03/28 10:01:02;;;;;;;3.20;1.30;;;;;;;17.22;55.29;98194.59;10374638;28;20026;-58
2024/03/28 10:06:04;;;;;;;1.42;1.08;;;;;;;17.21;54.38;98212.56;10374772;28;20296;-57
2024/03/28 10:11:05;;;;;;;2.25;0.82;;;;;;;17.22;54.80;98216.78;10373881;28;20024;-58
2024/03/28 10:16:12;;;;;;;4.43;1.13;;;;;;;17.21;55.08;98222.50;10373043;28;20022;-58
2024/03/28 10:21:18;;;;;;;2.10;0.93;;;;;;;17.19;53.96;98233.56;10373136;28;20029;-58
2024/03/28 10:26:18;;;;;;;1.05;0.50;;;;;;;17.16;55.32;98239.59;10373336;28;20026;-58
2024/03/28 10:31:23;;;;;;;0.90;0.60;;;;;;;17.19;53.89;98248.84;10372564;28;20025;-58
2024/03/28 10:36:24;;;;;;;2.35;0.80;;;;;;;17.16;54.29;98260.22;10373666;28;20752;-57
2024/03/28 10:41:25;;;;;;;0.63;0.40;;;;;;;17.17;54.22;98273.31;10373116;28;20030;-58
2024/03/28 10:46:26;;;;;;;0.85;0.43;;;;;;;17.19;53.82;98289.03;10371978;28;20166;-58
2024/03/28 10:51:32;;;;;;;1.23;0.52;;;;;;;17.20;55.32;98298.59;10371785;28;20121;-58
2024/03/28 10:56:32;;;;;;;1.45;0.68;;;;;;;17.16;54.17;98303.06;10345328;28;20450;-58
2024/03/28 11:01:32;;;;;;;1.08;0.50;;;;;;;17.21;55.41;98308.97;10372595;28;20064;-58
2024/03/28 11:06:33;;;;;;;1.05;0.50;;;;;;;17.22;53.98;98320.47;10372381;28;20028;-59
2024/03/28 11:11:33;;;;;;;1.83;0.70;;;;;;;17.20;54.92;98328.06;10372148;28;20042;-58
2024/03/28 11:16:35;;;;;;;1.30;0.80;;;;;;;17.24;54.48;98339.63;10371469;28;20418;-58
2024/03/28 11:21:35;;;;;;;1.27;0.60;;;;;;;17.24;55.46;98353.81;10371464;28;20288;-58
2024/03/28 11:26:36;;;;;;;1.48;0.63;;;;;;;17.20;53.82;98366.34;10350996;28;20064;-58
2024/03/28 11:31:36;;;;;;;0.90;0.40;;;;;;;17.16;54.18;98378.81;10370949;28;20021;-58
2024/03/28 11:36:37;;;;;;;0.88;0.40;;;;;;;17.14;54.82;98386.44;10371358;28;20030;-58
2024/03/28 11:41:37;;;;;;;1.30;0.60;;;;;;;17.13;55.20;98387.56;10370355;28;20030;-58
2024/03/28 11:46:38;;;;;;;1.48;0.57;;;;;;;17.07;55.38;98393.50;10371201;28;20025;-56
2024/03/28 11:51:38;;;;;;;0.85;0.47;;;;;;;17.04;55.61;98405.66;10370387;28;20038;-58
2024/03/28 11:56:43;;;;;;;0.63;0.60;;;;;;;17.10;55.15;98420.38;10370599;28;20125;-57
2024/03/28 12:01:43;;;;;;;1.08;0.50;;;;;;;17.12;55.71;98414.69;10370085;28;20283;-57
2024/03/28 12:06:43;;;;;;;1.42;0.50;;;;;;;17.15;54.99;98435.41;10370635;28;20022;-57
2024/03/28 12:11:44;;;;;;;0.65;0.40;;;;;;;17.12;55.15;98436.88;10369317;28;20052;-58
2024/03/28 12:16:45;;;;;;;1.70;0.50;;;;;;;17.09;54.59;98444.81;10369740;28;20021;-58
2024/03/28 12:21:46;;;;;;;3.13;0.70;;;;;;;17.04;55.45;98455.75;10369408;28;20026;-57
2024/03/28 12:26:46;;;;;;;1.02;0.65;;;;;;;17.01;55.23;98443.03;10369434;28;20554;-58
2024/03/28 12:31:46;;;;;;;1.43;0.63;;;;;;;17.00;56.22;98455.66;10368976;28;20044;-58
2024/03/28 12:36:52;;;;;;;0.97;0.60;;;;;;;17.01;55.88;98459.88;10369115;28;20775;-58
2024/03/28 12:41:54;;;;;;;1.08;0.60;;;;;;;16.97;55.78;98472.41;10368483;28;20300;-58
2024/03/28 12:46:54;;;;;;;1.25;0.65;;;;;;;16.93;55.28;98477.66;10367863;28;20022;-58
2024/03/28 12:51:54;;;;;;;2.27;0.73;;;;;;;16.89;56.46;98470.63;10368061;28;20037;-58
2024/03/28 12:56:55;;;;;;;1.20;0.60;;;;;;;16.88;56.20;98471.75;10369151;28;20283;-58
2024/03/28 13:01:55;;;;;;;1.70;0.50;;;;;;;16.84;56.57;98482.38;10367065;28;20292;-57
2024/03/28 13:06:56;;;;;;;1.30;0.73;;;;;;;16.87;56.38;98480.91;10368483;28;20371;-58
2024/03/28 13:11:56;;;;;;;2.03;0.57;;;;;;;16.87;56.85;98487.03;10367440;28;20363;-58
2024/03/28 13:16:57;;;;;;;0.85;0.55;;;;;;;16.86;57.03;98498.84;10366949;28;20412;-58
2024/03/28 13:21:57;;;;;;;2.58;0.60;;;;;;;16.84;56.96;98498.41;10367917;28;20031;-57
2024/03/28 13:26:57;;;;;;;0.98;0.50;;;;;;;16.88;57.33;98506.53;10368030;28;20516;-57
2024/03/28 13:31:58;;;;;;;0.90;0.47;;;;;;;16.85;55.64;98509.91;10367286;28;20466;-58
2024/03/28 13:36:59;;;;;;;0.57;0.50;;;;;;;16.84;56.36;98509.13;10367688;28;20293;-58
2024/03/28 13:41:59;;;;;;;1.25;0.50;;;;;;;16.82;55.91;98524.75;10367361;28;20660;-58
2024/03/28 13:47:00;;;;;;;1.33;0.50;;;;;;;16.84;56.48;98519.84;10366330;28;20018;-56
2024/03/28 13:52:00;;;;;;;1.93;0.83;;;;;;;16.85;56.35;98532.09;10367313;28;20728;-57
2024/03/28 13:57:01;;;;;;;1.67;0.50;;;;;;;16.84;56.53;98559.97;10368228;28;20361;-57
2024/03/28 14:02:01;;;;;;;0.80;0.50;;;;;;;16.83;57.32;98550.41;10370093;28;20041;-58
2024/03/28 14:07:02;;;;;;;3.60;0.77;;;;;;;16.83;56.06;98558.41;10373824;28;20030;-58
2024/03/28 14:12:02;;;;;;;0.95;0.40;;;;;;;16.82;56.07;98559.53;10373606;28;20080;-58
2024/03/28 14:17:02;;;;;;;0.85;0.60;;;;;;;16.80;56.41;98569.78;10374210;28;20037;-57
2024/03/28 14:22:03;;;;;;;1.20;0.50;;;;;;;16.85;56.53;98572.25;10374502;28;20092;-57
2024/03/28 14:27:03;;;;;;;0.95;0.40;;;;;;;16.85;56.87;98587.53;10374269;28;20280;-57
2024/03/28 14:32:04;;;;;;;0.65;0.38;;;;;;;16.82;55.20;98591.66;10374136;28;20585;-57
2024/03/28 14:37:05;;;;;;;0.63;0.40;;;;;;;16.79;55.62;98599.56;10373485;28;20030;-57
2024/03/28 14:42:05;;;;;;;1.77;0.50;;;;;;;16.77;56.98;98615.94;10373293;28;20462;-57
2024/03/28 14:47:05;;;;;;;0.53;0.40;;;;;;;16.75;55.85;98617.41;10372923;28;20047;-57
2024/03/28 14:52:06;;;;;;;0.60;0.40;;;;;;;16.71;56.71;98609.28;10373269;28;20676;-58
2024/03/28 14:57:06;;;;;;;0.55;0.40;;;;;;;16.70;57.27;98614.97;10372810;28;20303;-57
2024/03/28 15:02:06;;;;;;;1.20;0.60;;;;;;;16.69;56.05;98614.16;10372957;28;20022;-58
2024/03/28 15:07:07;;;;;;;0.70;0.40;;;;;;;16.71;55.74;98622.66;10372497;28;20281;-58
2024/03/28 15:12:07;;;;;;;0.63;0.30;;;;;;;16.72;55.65;98624.22;10370702;28;20291;-57
2024/03/28 15:17:08;;;;;;;0.65;0.45;;;;;;;16.76;55.51;98632.34;10372010;28;20034;-58
2024/03/28 15:22:08;;;;;;;0.73;0.53;;;;;;;16.73;56.63;98638.38;10371759;28;20087;-58
2024/03/28 15:27:08;;;;;;;0.67;0.40;;;;;;;16.71;55.26;98645.94;10371636;28;20272;-58
2024/03/28 15:32:08;;;;;;;0.60;0.53;;;;;;;16.74;55.50;98653.31;10371419;28;20280;-56
2024/03/28 15:37:09;;;;;;;1.37;0.30;;;;;;;16.78;55.06;98656.88;10371511;28;20276;-58
2024/03/28 15:42:09;;;;;;;1.00;0.30;;;;;;;16.83;54.81;98664.69;10371305;28;20818;-58
2024/03/28 15:47:09;;;;;;;1.23;0.50;;;;;;;16.85;54.08;98673.19;10370882;28;20272;-57
2024/03/28 15:52:10;;;;;;;0.63;0.30;;;;;;;16.87;54.30;98674.41;10371020;28;20828;-58
2024/03/28 15:57:10;;;;;;;0.70;0.30;;;;;;;16.98;53.87;98679.31;10370721;28;20344;-58
2024/03/28 16:02:11;;;;;;;0.60;0.57;;;;;;;17.00;53.44;98687.78;10369262;28;20625;-58
2024/03/28 16:07:12;;;;;;;1.15;0.38;;;;;;;17.05;54.50;98700.94;10370035;28;20411;-58
2024/03/28 16:12:12;;;;;;;0.40;0.30;;;;;;;17.04;54.31;98686.78;10368576;28;20057;-58
2024/03/28 16:17:12;;;;;;;0.33;0.30;;;;;;;17.06;54.51;98681.13;10352134;28;20476;-58
2024/03/28 16:22:14;;;;;;;0.67;0.33;;;;;;;17.11;53.62;98668.28;10369883;28;20279;-58
2024/03/28 16:27:14;;;;;;;1.35;0.45;;;;;;;17.16;54.13;98668.03;10368858;28;20378;-58
2024/03/28 16:32:14;;;;;;;1.33;0.57;;;;;;;17.13;53.54;98663.34;10356187;28;20164;-58
2024/03/28 16:37:15;;;;;;;0.60;0.40;;;;;;;17.16;53.83;98673.38;10368739;28;20026;-58
2024/03/28 16:42:15;;;;;;;2.73;0.47;;;;;;;17.17;53.41;98672.31;10369003;28;20334;-59
2024/03/28 16:47:16;;;;;;;1.37;0.40;;;;;;;17.15;53.12;98668.38;10368085;28;20728;-58
2024/03/28 16:52:16;;;;;;;0.43;0.32;;;;;;;17.20;54.04;98668.16;10368800;28;20299;-58
2024/03/28 16:57:16;;;;;;;1.37;0.40;;;;;;;17.23;52.92;98660.22;10368110;28;20021;-58
2024/03/28 17:02:17;;;;;;;1.08;0.30;;;;;;;17.13;54.76;98660.69;10368555;28;20297;-60
2024/03/28 17:07:17;;;;;;;5.60;1.23;;;;;;;17.04;53.32;98662.69;10367660;28;20037;-58
2024/03/28 17:12:17;;;;;;;8.93;1.70;;;;;;;17.11;54.09;98667.50;10368225;28;20300;-58
2024/03/28 17:17:19;;;;;;;9.02;1.83;;;;;;;17.30;57.18;98662.38;10367850;28;20277;-54
2024/03/28 17:22:19;;;;;;;5.20;1.38;;;;;;;17.53;54.85;98660.75;10367956;28;20164;-57
2024/03/28 17:27:20;;;;;;;4.83;1.20;;;;;;;17.52;55.93;98661.88;10366442;28;20441;-51
2024/03/28 17:32:20;;;;;;;14.87;2.17;;;;;;;17.56;55.49;98650.50;10367948;28;20276;-54
2024/03/28 17:37:20;;;;;;;18.27;3.23;;;;;;;17.52;55.40;98658.41;10369126;28;20292;-53
2024/03/28 17:42:25;;;;;;;23.83;4.07;;;;;;;17.51;55.67;98667.56;10375428;28;20288;-55
2024/03/28 17:47:25;;;;;;;11.68;2.35;;;;;;;17.50;55.28;98672.13;10373352;28;20021;-55
2024/03/28 17:52:25;;;;;;;12.60;2.13;;;;;;;17.46;55.24;98675.84;10374021;28;20379;-55
2024/03/28 17:57:26;;;;;;;13.87;2.33;;;;;;;17.44;54.99;98676.19;10373003;28;20272;-54
2024/03/28 18:02:26;;;;;;;8.23;1.90;;;;;;;17.33;54.94;98685.78;10371842;28;20783;-53
2024/03/28 18:07:26;;;;;;;7.27;1.73;;;;;;;17.16;55.15;98681.44;10372359;28;20026;-57
2024/03/28 18:12:27;;;;;;;12.40;2.13;;;;;;;17.21;54.90;98673.19;10373465;28;20699;-57
2024/03/28 18:17:27;;;;;;;12.10;2.10;;;;;;;17.13;55.13;98676.75;10371795;28;20104;-57
2024/03/28 18:22:27;;;;;;;11.27;1.90;;;;;;;17.16;53.99;98689.47;10372618;28;20030;-56
2024/03/28 18:27:28;;;;;;;10.17;2.23;;;;;;;17.14;54.00;98685.56;10372615;28;20280;-56
2024/03/28 18:32:28;;;;;;;11.90;3.38;;;;;;;17.09;55.36;98699.97;10372645;28;20269;-55
2024/03/28 18:37:29;;;;;;;5.30;1.63;;;;;;;17.04;55.10;98702.84;10371698;28;20037;-55
2024/03/28 18:42:30;;;;;;;14.10;2.95;;;;;;;17.01;55.37;98708.09;10370350;28;20338;-55
2024/03/28 18:47:30;;;;;;;7.77;1.50;;;;;;;17.04;55.07;98720.81;10370044;28;20515;-56
2024/03/28 18:52:31;;;;;;;6.78;1.70;;;;;;;17.02;53.95;98723.03;10370399;28;20268;-56
2024/03/28 18:57:31;;;;;;;11.03;2.03;;;;;;;17.05;53.86;98719.69;10365824;28;20377;-54
2024/03/28 19:02:31;;;;;;;10.77;2.00;;;;;;;17.10;55.09;98717.59;10366090;28;20296;-53
2024/03/28 19:07:31;;;;;;;6.37;1.60;;;;;;;17.08;55.42;98729.75;10368721;28;20798;-51
2024/03/28 19:12:32;;;;;;;6.23;1.40;;;;;;;17.10;54.96;98735.56;10368002;28;20291;-53
2024/03/28 19:17:33;;;;;;;7.80;1.67;;;;;;;17.12;55.71;98746.72;10367730;28;20798;-48
2024/03/28 19:22:34;;;;;;;8.00;1.83;;;;;;;17.15;55.13;98748.72;10368148;28;20385;-52
2024/03/28 19:27:34;;;;;;;4.37;1.27;;;;;;;17.18;54.53;98761.47;10367483;28;20053;-50
2024/03/28 19:32:34;;;;;;;8.07;1.53;;;;;;;17.23;54.65;98761.22;10367887;28;20786;-55
2024/03/28 19:37:35;;;;;;;4.90;0.80;;;;;;;17.20;53.84;98761.91;10366870;28;20315;-56
2024/03/28 19:42:35;;;;;;;5.63;1.00;;;;;;;17.26;54.47;98763.22;10368484;28;20343;-56
2024/03/28 19:47:36;;;;;;;3.20;0.90;;;;;;;17.27;53.46;98786.22;10369752;28;20323;-56
2024/03/28 19:52:37;;;;;;;5.53;1.10;;;;;;;17.28;53.58;98789.69;10361788;28;20026;-57
2024/03/28 19:57:38;;;;;;;2.72;0.95;;;;;;;17.31;54.28;98791.72;10367125;28;20026;-57
2024/03/28 20:02:39;;;;;;;3.47;0.80;;;;;;;17.31;53.80;98805.09;10365255;28;20038;-55
2024/03/28 20:07:42;;;;;;;4.55;1.58;;;;;;;17.32;52.73;98810.13;10365057;28;20125;-55
2024/03/28 20:12:42;;;;;;;4.47;0.70;;;;;;;17.34;52.94;98818.59;10366419;28;20046;-57
2024/03/28 20:17:43;;;;;;;6.57;0.88;;;;;;;17.33;53.10;98819.72;10366295;28;20026;-56
2024/03/28 20:22:44;;;;;;;2.58;0.82;;;;;;;17.37;52.38;98820.63;10366026;28;20088;-57
2024/03/28 20:27:45;;;;;;;2.27;0.70;;;;;;;17.37;52.82;98820.63;10364750;28;20532;-56
2024/03/28 20:32:46;;;;;;;4.25;0.85;;;;;;;17.34;52.44;98834.69;10365533;28;20327;-55
2024/03/28 20:37:46;;;;;;;2.95;0.73;;;;;;;17.30;53.27;98844.50;10364517;28;20057;-56
2024/03/28 20:42:47;;;;;;;3.87;0.97;;;;;;;17.33;53.34;98853.75;10365273;28;20117;-56
2024/03/28 20:47:47;;;;;;;3.77;0.90;;;;;;;17.36;51.73;98863.81;10364157;28;20704;-55
2024/03/28 20:52:47;;;;;;;2.40;0.70;;;;;;;17.38;53.25;98872.28;10364986;28;20568;-55
2024/03/28 20:57:48;;;;;;;1.73;0.70;;;;;;;17.36;53.35;98869.16;10364382;28;20280;-56
2024/03/28 21:02:48;;;;;;;1.90;0.70;;;;;;;17.33;53.56;98875.97;10365266;28;20621;-56
2024/03/28 21:13:07;;;;;;;3.03;0.67;;;;;;;17.32;52.34;98874.41;10365235;28;20041;-56
2024/03/28 21:18:08;;;;;;;1.60;0.43;;;;;;;17.31;52.49;98874.75;10364756;28;20469;-55
2024/03/28 21:23:08;;;;;;;3.37;0.70;;;;;;;17.38;52.35;98878.44;10364413;28;20084;-56
2024/03/28 21:28:08;;;;;;;4.50;0.53;;;;;;;17.37;52.20;98876.88;10365036;28;20613;-55
2024/03/28 21:33:09;;;;;;;1.13;0.50;;;;;;;17.37;52.00;98874.19;10365096;28;20283;-54
2024/03/28 21:38:09;;;;;;;2.27;0.63;;;;;;;17.41;52.58;98877.00;10363978;28;20298;-56
2024/03/28 21:43:09;;;;;;;1.20;0.67;;;;;;;17.39;52.44;98880.00;10364682;28;20842;-55
2024/03/28 21:48:10;;;;;;;3.13;0.40;;;;;;;17.40;52.41;98884.25;10363840;28;20330;-56
2024/03/28 21:53:10;;;;;;;1.97;0.70;;;;;;;17.41;52.66;98885.03;10364917;28;20265;-56
2024/03/28 21:58:11;;;;;;;2.90;0.70;;;;;;;17.42;52.80;98894.66;10364954;28;20268;-56
2024/03/28 22:03:11;;;;;;;2.42;0.57;;;;;;;17.40;52.57;98886.13;10363434;28;20747;-55
2024/03/28 22:08:11;;;;;;;1.63;0.63;;;;;;;17.39;52.39;98893.38;10364669;28;20469;-56
2024/03/28 22:13:11;;;;;;;2.57;0.43;;;;;;;17.44;52.99;98887.06;10363136;28;20387;-56
2024/03/28 22:18:12;;;;;;;1.02;0.57;;;;;;;17.45;51.92;98900.13;10364186;28;20758;-56
2024/03/28 22:23:12;;;;;;;2.70;0.47;;;;;;;17.47;52.14;98902.47;10366456;28;20030;-55
2024/03/28 22:28:13;;;;;;;1.03;0.30;;;;;;;17.43;52.32;98901.56;10370789;28;20269;-56
2024/03/28 22:33:14;;;;;;;1.95;0.40;;;;;;;17.42;52.14;98895.44;10370812;28;20338;-55
2024/03/28 22:38:14;;;;;;;1.85;0.47;;;;;;;17.44;51.63;98898.56;10369285;28;20025;-56
2024/03/28 22:43:14;;;;;;;1.83;0.60;;;;;;;17.44;52.16;98901.22;10370322;28;20113;-55
2024/03/28 22:48:15;;;;;;;2.83;0.40;;;;;;;17.45;52.29;98910.06;10370232;28;20312;-55
2024/03/28 22:53:15;;;;;;;0.75;0.30;;;;;;;17.46;52.12;98908.94;10368292;28;20218;-56
2024/03/28 22:58:15;;;;;;;0.80;0.33;;;;;;;17.44;51.45;98905.81;10369737;28;20049;-56
2024/03/28 23:03:16;;;;;;;1.67;0.40;;;;;;;17.48;52.14;98907.47;10369195;28;20296;-56
2024/03/28 23:08:19;;;;;;;1.10;0.40;;;;;;;17.45;52.08;98908.16;10369450;28;20347;-55
2024/03/28 23:13:19;;;;;;;0.70;0.20;;;;;;;17.46;51.92;98896.31;10368820;28;20316;-56
2024/03/28 23:18:21;;;;;;;1.25;0.30;;;;;;;17.50;51.42;98899.09;10369442;28;20056;-55
2024/03/28 23:23:21;;;;;;;1.33;0.50;;;;;;;17.46;51.34;98898.22;10368561;28;20026;-54
2024/03/28 23:28:21;;;;;;;0.83;0.30;;;;;;;17.48;51.26;98912.06;10367544;28;20279;-55